Williston, VT

5:19 PM EDT on October 20, 2014 (GMT -0400)
Knapp State | Change Station
CLOSE
Current Station
Airport
Location: Montpelier,
Elevation: 1165 ft
Nearby Weather Stations

Elev 1165 ft 44.20 °N, 72.56 °W | Updated 28 minutes ago

Overcast
Overcast
47 °F
Feels Like 47 °F
N
4
Wind Variable Wind from WNW

Today
High -- | Low -- °F
--% Chance of Precip.
Yesterday
High -- | Low -- °F
Precip. -- in
7:13 AM 5:59 PM
Waning Crescent, 9% visible
Pressure 29.98 in
Visibility 10.0 miles
Clouds Overcast 7000 ft
Dew Point 33 °F
Humidity 59%
Rainfall 0.00 in
Snow Depth Not available.
UV 0 out of 12
Pollen .10 out of 12
PM2.5 Good
Flu Activity Sporadic
METAR KMPV 202051Z AUTO 29003KT 10SM OVC070 08/01 A2995 RMK AO2 SLP152 T00830006 55002 $

More Conditions Fewer Conditions

Pressure 29.98 in
Visibility 10.0 miles
Clouds Overcast 7000 ft
Dew Point 33 °F
Humidity 59%
Rainfall 0.00 in
Snow Depth Not available.
UV 0 out of 12
Pollen .10 out of 12
PM2.5 Good
Flu Activity Sporadic
METAR KMPV 202051Z AUTO 29003KT 10SM OVC070 08/01 A2995 RMK AO2 SLP152 T00830006 55002 $

More Conditions Fewer Conditions

10-Day Weather Forecast

Almanac

Astronomy

Oct. 20, 2014 Rise Set
Actual Time 7:13 AM EDT 5:59 PM EDT
Civil Twilight 6:44 AM EDT 6:29 PM EDT
Nautical Twilight 6:10 AM EDT 7:03 PM EDT
Astronomical Twilight 5:36 AM EDT 7:36 PM EDT
Moon 3:52 AM EDT 4:27 PM EDT
Length of Visible Light 11h 45m
Length of Day
10h 46m
Waning Crescent, 9% of the Moon is Illuminated
Today
Waning Crescent
Oct 23
New
Oct 30
First Quarter
Nov 6
Full
Nov 14
Last Quarter

Today's Extremes

State Highs State Lows

Community

WunderPhotos

Upload Photos

1,763,510 photos uploaded!

WunderBlogs® & News

Nearby

Air Quality

  Air Quality AQ Index Pollutant
Yesterday Good
OZONE
Yesterday Good
PM2.5
Current Good
PM2.5
Monday Good
PM2.5
Tuesday Good
PM2.5

Snow Depth

Station Depth Elevation
No new snow has been reported.

Earthquake Activity

City Distance Mag. Time & Date
No recent earthquake activity has been reported nearby.
Minimum magnitude displayed is 2.5.

Coastal Water Temperatures

Place Temperature
No Stations Reporting

Nearby Weather Stations